Ds Blue Wave — A8YK2 — position and weather

sailwx.info

Track history (hours):
 
Tides and Currents Weather Stations Pressure Air Temp Water Temp Dewpoint Dewpoint Depression Visibility Wind Speed Wind Dir Waves Ship Positions

Ds Blue Wave

Last reported at 2015-Jul-31 18:25 UTC. Time now 2015-Aug-02 06:23 UTC.
Position N 31°44' E 124°29'.

Length 129 m; draft 7.5 m.

Type: Cargo ship. MMSI: 636092200.

Date/timePositionNaut miles runAvg speedWind from/ knotsBaromVisibWave heightAir tempDewpointWater temp
2015-Jul-31 18:25N 31°44' E 124°29'6012.0
2015-Jul-31 13:22N 31°20' E 123°25'1011.9
2015-Jul-31 12:31N 31°15' E 123°14'1212.0
2015-Jul-31 11:31N 31°09' E 123°02'1111.7
2015-Jul-31 10:33N 31°06' E 122°49'1211.9
2015-Jul-31 09:33N 31°06' E 122°36'1111.3
2015-Jul-31 08:33N 31°05' E 122°22'1413.6
2015-Jul-31 07:33N 31°12' E 122°08'1312.9
2015-Jul-31 06:34N 31°16' E 121°54'1211.6
2015-Jul-31 05:33N 31°20' E 121°41'6 5.3
2015-Jul-31 04:25N 31°22' E 121°35'0 0.0
2015-Jul-31 03:28N 31°22' E 121°35'0 0.0
2015-Jul-31 02:28N 31°22' E 121°35'0 0.0
2015-Jul-31 01:28N 31°22' E 121°35'0 0.0
2015-Jul-31 00:28N 31°22' E 121°35'0 0.0
2015-Jul-30 23:22N 31°22' E 121°35'0 0.0
2015-Jul-30 22:25N 31°22' E 121°35'0 0.0
2015-Jul-30 21:28N 31°22' E 121°35'0 0.0
2015-Jul-30 20:25N 31°22' E 121°35'0 0.0
2015-Jul-30 19:31N 31°22' E 121°35'0 0.0
2015-Jul-30 18:22N 31°22' E 121°35'0 0.0
2015-Jul-30 17:28N 31°22' E 121°35'0 0.0
2015-Jul-30 16:31N 31°22' E 121°35'1 1.0
2015-Jul-30 15:33N 31°23' E 121°36'9 9.3
2015-Jul-30 14:33N 31°17' E 121°44'8 7.8
2015-Jul-30 13:33N 31°11' E 121°50'8 7.8
2015-Jul-30 12:30N 31°06' E 121°58'1313.2
2015-Jul-30 11:32N 31°03' E 122°13'1313.2
2015-Jul-30 10:33N 31°01' E 122°28'6 0.3
2015-Jul-29 14:29N 31°02' E 122°35'0 0.0
2015-Jul-29 13:20N 31°02' E 122°35'0 0.0
2015-Jul-29 12:32N 31°02' E 122°35'0 0.1
2015-Jul-29 11:29N 31°02' E 122°35'10 9.9
2015-Jul-29 10:29N 31°02' E 122°46'1314.3
2015-Jul-29 09:33N 31°07' E 123°01'1514.5
2015-Jul-29 08:33N 31°15' E 123°15'37513.9
2015-Jul-28 05:33N 33°43' E 130°03'1313.1
2015-Jul-28 04:34N 33°39' E 130°18'6 5.3
2015-Jul-28 03:31N 33°39' E 130°25'0 0.0
2015-Jul-28 02:31N 33°39' E 130°25'0 0.0
2015-Jul-28 01:31N 33°39' E 130°25'0 0.0
2015-Jul-28 00:31N 33°39' E 130°25'0 0.0
2015-Jul-27 23:31N 33°39' E 130°25'3 3.5
2015-Jul-27 22:33N 33°38' E 130°21'1 1.2
2015-Jul-27 21:23N 33°38' E 130°19'0 0.0
2015-Jul-27 20:32N 33°38' E 130°19'0 0.0
2015-Jul-27 19:29N 33°38' E 130°19'0 0.0
2015-Jul-27 18:32N 33°38' E 130°19'0 0.0
2015-Jul-27 17:29N 33°38' E 130°19'0 0.0
2015-Jul-27 16:17N 33°38' E 130°19'0 0.1
2015-Jul-27 15:32N 33°38' E 130°19'0 0.1
2015-Jul-27 14:32N 33°38' E 130°19'0 0.0
2015-Jul-27 13:23N 33°38' E 130°19'0 0.0
2015-Jul-27 12:32N 33°38' E 130°19'5 5.0
2015-Jul-27 11:33N 33°42' E 130°15'401 8.5
2015-Jul-25 12:07N 31°06' E 122°57'915.9
2015-Jul-25 11:33N 31°03' E 122°47'1514.7
2015-Jul-25 10:33N 30°60' E 122°31'1614.3
2015-Jul-25 09:26N 31°02' E 122°12'910.1
2015-Jul-25 08:33N 31°05' E 122°02'1211.7
2015-Jul-25 07:34N 31°11' E 121°51'1313.1
2015-Jul-25 06:34N 31°20' E 121°40'1 1.1
2015-Jul-25 05:32N 31°20' E 121°39'0 0.0
2015-Jul-25 04:32N 31°20' E 121°39'0 0.0
2015-Jul-25 03:20N 31°20' E 121°39'0 0.0
2015-Jul-25 02:32N 31°20' E 121°39'0 0.0
2015-Jul-25 01:32N 31°20' E 121°39'0 0.0
2015-Jul-25 00:32N 31°20' E 121°39'0 0.0
2015-Jul-24 23:32N 31°20' E 121°39'0 0.0
2015-Jul-24 22:29N 31°20' E 121°39'0 0.0
2015-Jul-24 21:29N 31°20' E 121°39'1 0.9
2015-Jul-24 20:33N 31°21' E 121°39'6 6.2
2015-Jul-24 19:33N 31°17' E 121°45'1211.6
2015-Jul-24 18:34N 31°09' E 121°54'1413.4
2015-Jul-24 17:33N 31°03' E 122°09'42711.5
2015-Jul-23 04:33N 33°42' E 129°58'1414.0
2015-Jul-23 03:33N 33°42' E 130°15'8 8.2
2015-Jul-23 02:33N 33°39' E 130°25'0 0.0
2015-Jul-23 01:33N 33°39' E 130°25'0 0.0
2015-Jul-23 00:33N 33°39' E 130°25'0 0.0
2015-Jul-22 23:33N 33°39' E 130°25'0 0.0
2015-Jul-22 22:33N 33°39' E 130°25'0 0.0
2015-Jul-22 21:33N 33°39' E 130°25'2 2.4
2015-Jul-22 20:33N 33°38' E 130°22'3 0.8
2015-Jul-22 17:32N 33°38' E 130°19'0 0.0
2015-Jul-22 15:27N 33°38' E 130°19'0 0.1
2015-Jul-22 14:32N 33°38' E 130°19'0 0.0
2015-Jul-22 13:23N 33°38' E 130°19'0 0.1
2015-Jul-22 12:33N 33°38' E 130°19'0 0.1
2015-Jul-22 11:33N 33°38' E 130°19'0 0.1
2015-Jul-22 10:27N 33°38' E 130°19'1 1.2
2015-Jul-22 09:33N 33°39' E 130°18'  
Track history (hours):
 
Tides and Currents Weather Stations Pressure Air Temp Water Temp Dewpoint Dewpoint Depression Visibility Wind Speed Wind Dir Waves Ship Positions

Ds Blue Wave

Last reported at 2015-Jul-31 18:25 UTC. Time now 2015-Aug-02 06:23 UTC.
Position N 31°44' E 124°29'.

Length 129 m; draft 7.5 m.

Type: Cargo ship. MMSI: 636092200.

Date/timePositionNaut miles runAvg speedWind from/ knotsBaromVisibWave heightAir tempDewpointWater temp
2015-Jul-31 18:25N 31°44' E 124°29'6012.0
2015-Jul-31 13:22N 31°20' E 123°25'1011.9
2015-Jul-31 12:31N 31°15' E 123°14'1212.0
2015-Jul-31 11:31N 31°09' E 123°02'1111.7
2015-Jul-31 10:33N 31°06' E 122°49'1211.9
2015-Jul-31 09:33N 31°06' E 122°36'1111.3
2015-Jul-31 08:33N 31°05' E 122°22'1413.6
2015-Jul-31 07:33N 31°12' E 122°08'1312.9
2015-Jul-31 06:34N 31°16' E 121°54'1211.6
2015-Jul-31 05:33N 31°20' E 121°41'6 5.3
2015-Jul-31 04:25N 31°22' E 121°35'0 0.0
2015-Jul-31 03:28N 31°22' E 121°35'0 0.0
2015-Jul-31 02:28N 31°22' E 121°35'0 0.0
2015-Jul-31 01:28N 31°22' E 121°35'0 0.0
2015-Jul-31 00:28N 31°22' E 121°35'0 0.0
2015-Jul-30 23:22N 31°22' E 121°35'0 0.0
2015-Jul-30 22:25N 31°22' E 121°35'0 0.0
2015-Jul-30 21:28N 31°22' E 121°35'0 0.0
2015-Jul-30 20:25N 31°22' E 121°35'0 0.0
2015-Jul-30 19:31N 31°22' E 121°35'0 0.0
2015-Jul-30 18:22N 31°22' E 121°35'0 0.0
2015-Jul-30 17:28N 31°22' E 121°35'0 0.0
2015-Jul-30 16:31N 31°22' E 121°35'1 1.0
2015-Jul-30 15:33N 31°23' E 121°36'9 9.3
2015-Jul-30 14:33N 31°17' E 121°44'8 7.8
2015-Jul-30 13:33N 31°11' E 121°50'8 7.8
2015-Jul-30 12:30N 31°06' E 121°58'1313.2
2015-Jul-30 11:32N 31°03' E 122°13'1313.2
2015-Jul-30 10:33N 31°01' E 122°28'6 0.3
2015-Jul-29 14:29N 31°02' E 122°35'0 0.0
2015-Jul-29 13:20N 31°02' E 122°35'0 0.0
2015-Jul-29 12:32N 31°02' E 122°35'0 0.1
2015-Jul-29 11:29N 31°02' E 122°35'10 9.9
2015-Jul-29 10:29N 31°02' E 122°46'1314.3
2015-Jul-29 09:33N 31°07' E 123°01'1514.5
2015-Jul-29 08:33N 31°15' E 123°15'37513.9
2015-Jul-28 05:33N 33°43' E 130°03'1313.1
2015-Jul-28 04:34N 33°39' E 130°18'6 5.3
2015-Jul-28 03:31N 33°39' E 130°25'0 0.0
2015-Jul-28 02:31N 33°39' E 130°25'0 0.0
2015-Jul-28 01:31N 33°39' E 130°25'0 0.0
2015-Jul-28 00:31N 33°39' E 130°25'0 0.0
2015-Jul-27 23:31N 33°39' E 130°25'3 3.5
2015-Jul-27 22:33N 33°38' E 130°21'1 1.2
2015-Jul-27 21:23N 33°38' E 130°19'0 0.0
2015-Jul-27 20:32N 33°38' E 130°19'0 0.0
2015-Jul-27 19:29N 33°38' E 130°19'0 0.0
2015-Jul-27 18:32N 33°38' E 130°19'0 0.0
2015-Jul-27 17:29N 33°38' E 130°19'0 0.0
2015-Jul-27 16:17N 33°38' E 130°19'0 0.1
2015-Jul-27 15:32N 33°38' E 130°19'0 0.1
2015-Jul-27 14:32N 33°38' E 130°19'0 0.0
2015-Jul-27 13:23N 33°38' E 130°19'0 0.0
2015-Jul-27 12:32N 33°38' E 130°19'5 5.0
2015-Jul-27 11:33N 33°42' E 130°15'401 8.5
2015-Jul-25 12:07N 31°06' E 122°57'915.9
2015-Jul-25 11:33N 31°03' E 122°47'1514.7
2015-Jul-25 10:33N 30°60' E 122°31'1614.3
2015-Jul-25 09:26N 31°02' E 122°12'910.1
2015-Jul-25 08:33N 31°05' E 122°02'1211.7
2015-Jul-25 07:34N 31°11' E 121°51'1313.1
2015-Jul-25 06:34N 31°20' E 121°40'1 1.1
2015-Jul-25 05:32N 31°20' E 121°39'0 0.0
2015-Jul-25 04:32N 31°20' E 121°39'0 0.0
2015-Jul-25 03:20N 31°20' E 121°39'0 0.0
2015-Jul-25 02:32N 31°20' E 121°39'0 0.0
2015-Jul-25 01:32N 31°20' E 121°39'0 0.0
2015-Jul-25 00:32N 31°20' E 121°39'0 0.0
2015-Jul-24 23:32N 31°20' E 121°39'0 0.0
2015-Jul-24 22:29N 31°20' E 121°39'0 0.0
2015-Jul-24 21:29N 31°20' E 121°39'1 0.9
2015-Jul-24 20:33N 31°21' E 121°39'6 6.2
2015-Jul-24 19:33N 31°17' E 121°45'1211.6
2015-Jul-24 18:34N 31°09' E 121°54'1413.4
2015-Jul-24 17:33N 31°03' E 122°09'42711.5
2015-Jul-23 04:33N 33°42' E 129°58'1414.0
2015-Jul-23 03:33N 33°42' E 130°15'8 8.2
2015-Jul-23 02:33N 33°39' E 130°25'0 0.0
2015-Jul-23 01:33N 33°39' E 130°25'0 0.0
2015-Jul-23 00:33N 33°39' E 130°25'0 0.0
2015-Jul-22 23:33N 33°39' E 130°25'0 0.0
2015-Jul-22 22:33N 33°39' E 130°25'0 0.0
2015-Jul-22 21:33N 33°39' E 130°25'2 2.4
2015-Jul-22 20:33N 33°38' E 130°22'3 0.8
2015-Jul-22 17:32N 33°38' E 130°19'0 0.0
2015-Jul-22 15:27N 33°38' E 130°19'0 0.1
2015-Jul-22 14:32N 33°38' E 130°19'0 0.0
2015-Jul-22 13:23N 33°38' E 130°19'0 0.1
2015-Jul-22 12:33N 33°38' E 130°19'0 0.1
2015-Jul-22 11:33N 33°38' E 130°19'0 0.1
2015-Jul-22 10:27N 33°38' E 130°19'1 1.2
2015-Jul-22 09:33N 33°39' E 130°18'  

Dump ship's entire track history